Time;durP1;ratioP1;P1;durP2;ratioP2;P2;SDS_P1;SDS_P2;PMS_P1;PMS_P2;Temp;Humidity;BMP_temperature;BMP_pressure;BME280_temperature;BME280_humidity;BME280_pressure;Samples;Min_cycle;Max_cycle;Signal;HPM_P1;HPM_P2
2022/01/25 00:10:15;;;;;;;34.30;16.60;;;;;;;3.34;100.00;102457.72;5929591;29;20055;-89
2022/01/25 00:26:48;;;;;;;29.92;15.25;;;;;;;3.35;100.00;102458.56;5904730;30;20517;-89
2022/01/25 00:33:10;;;;;;;37.45;16.58;;;;;;;3.35;100.00;102466.25;5932920;29;20052;-89
2022/01/25 00:36:15;;;;;;;34.78;15.85;;;;;;;3.33;100.00;102456.06;5902624;30;20483;-89
2022/01/25 00:39:31;;;;;;;33.58;16.58;;;;;;;3.23;100.00;102457.94;5935650;29;20054;-89
2022/01/25 00:42:33;;;;;;;33.55;15.95;;;;;;;3.37;100.00;102454.28;5904241;29;20100;-88
2022/01/25 00:45:35;;;;;;;30.73;15.63;;;;;;;3.36;100.00;102452.59;5932374;29;20066;-89
2022/01/25 00:54:48;;;;;;;33.65;16.33;;;;;;;3.35;100.00;102446.59;5906876;29;20202;-88
2022/01/25 00:57:50;;;;;;;29.60;14.45;;;;;;;3.38;100.00;102440.59;5919615;29;20237;-89
2022/01/25 01:00:52;;;;;;;31.30;13.90;;;;;;;3.32;100.00;102443.28;5935913;29;20063;-89
2022/01/25 01:03:55;;;;;;;28.23;14.05;;;;;;;3.30;100.00;102445.00;5936106;29;20052;-89
2022/01/25 01:06:58;;;;;;;28.33;14.90;;;;;;;3.35;100.00;102435.53;5904476;30;20044;-89
2022/01/25 01:10:01;;;;;;;25.90;14.05;;;;;;;3.29;100.00;102441.63;5909359;30;20048;-89
2022/01/25 01:16:45;;;;;;;26.13;13.32;;;;;;;3.19;100.00;102438.38;5902982;30;20088;-89
2022/01/25 01:33:49;;;;;;;27.73;13.85;;;;;;;3.16;100.00;102419.69;5904049;30;20063;-89
2022/01/25 01:43:36;;;;;;;29.58;14.07;;;;;;;3.17;100.00;102411.13;5910335;30;20048;-88
2022/01/25 01:46:44;;;;;;;28.85;14.48;;;;;;;3.16;100.00;102404.31;5905214;30;20071;-88
2022/01/25 01:49:46;;;;;;;26.50;13.55;;;;;;;3.14;100.00;102406.06;5905237;29;20062;-88
2022/01/25 01:52:49;;;;;;;23.63;12.48;;;;;;;3.11;100.00;102412.06;5906810;30;20074;-88
2022/01/25 01:55:51;;;;;;;28.77;14.00;;;;;;;3.12;100.00;102405.25;5904206;30;20184;-88
2022/01/25 01:58:56;;;;;;;28.15;14.68;;;;;;;3.06;100.00;102398.53;5921599;29;20064;-88
2022/01/25 02:01:58;;;;;;;29.38;14.75;;;;;;;3.02;100.00;102402.00;5904987;30;20502;-88
2022/01/25 02:05:01;;;;;;;27.58;13.07;;;;;;;3.06;100.00;102405.38;5905656;30;20055;-88
2022/01/25 02:08:03;;;;;;;30.08;13.25;;;;;;;3.07;100.00;102402.75;5909864;30;20048;-88
2022/01/25 02:11:06;;;;;;;32.60;15.43;;;;;;;3.10;100.00;102397.59;5906697;30;20052;-88
2022/01/25 02:14:12;;;;;;;30.73;14.80;;;;;;;3.11;100.00;102406.13;5910518;29;20071;-88
2022/01/25 02:23:53;;;;;;;34.30;15.45;;;;;;;3.13;100.00;102395.00;5901601;30;20628;-88
2022/01/25 02:27:09;;;;;;;29.15;14.77;;;;;;;3.10;100.00;102382.22;5904977;30;20076;-88
2022/01/25 02:30:11;;;;;;;31.42;14.23;;;;;;;3.06;100.00;102388.28;5934301;29;20060;-88
2022/01/25 02:33:14;;;;;;;28.25;14.27;;;;;;;3.07;100.00;102397.63;5900686;30;20044;-89
2022/01/25 02:36:27;;;;;;;29.00;14.52;;;;;;;3.15;100.00;102392.38;5937960;29;20047;-88
2022/01/25 02:39:30;;;;;;;30.50;15.20;;;;;;;3.14;100.00;102391.56;5930103;29;20059;-88
2022/01/25 02:42:31;;;;;;;27.77;14.40;;;;;;;3.14;100.00;102389.00;5886715;30;20052;-88
2022/01/25 02:45:36;;;;;;;30.38;14.48;;;;;;;3.14;100.00;102383.88;5899926;30;20048;-89
2022/01/25 02:48:53;;;;;;;32.05;15.13;;;;;;;3.10;100.00;102382.22;5918774;29;20048;-89
2022/01/25 02:51:55;;;;;;;27.58;15.13;;;;;;;3.09;100.00;102382.28;5912493;30;20729;-88
2022/01/25 02:54:57;;;;;;;29.20;14.77;;;;;;;3.07;100.00;102377.19;5923407;29;21466;-88
2022/01/25 02:57:59;;;;;;;30.58;15.25;;;;;;;3.07;100.00;102371.22;5928163;29;20525;-88
2022/01/25 03:01:15;;;;;;;34.60;16.20;;;;;;;3.06;100.00;102372.09;5891603;30;20502;-88
2022/01/25 03:04:30;;;;;;;30.30;14.88;;;;;;;3.06;100.00;102374.66;5920599;29;20501;-88
2022/01/25 03:07:33;;;;;;;28.52;15.18;;;;;;;3.06;100.00;102361.88;5899298;30;20082;-88
2022/01/25 03:10:39;;;;;;;31.17;15.75;;;;;;;3.04;100.00;102373.84;5908333;30;20169;-88
2022/01/25 03:13:52;;;;;;;32.83;15.68;;;;;;;3.04;100.00;102372.13;5919728;29;20052;-88
2022/01/25 03:20:17;;;;;;;34.10;16.23;;;;;;;3.07;100.00;102378.91;5910127;30;20044;-88
2022/01/25 03:23:21;;;;;;;33.22;16.23;;;;;;;3.05;100.00;102384.03;5901846;30;20570;-88
2022/01/25 03:26:25;;;;;;;29.85;14.98;;;;;;;3.06;100.00;102385.72;5930295;29;20059;-88
2022/01/25 03:29:27;;;;;;;31.88;14.82;;;;;;;3.13;100.00;102384.75;5918869;29;20480;-88
2022/01/25 03:32:35;;;;;;;33.55;15.40;;;;;;;3.27;100.00;102381.09;5904863;30;20044;-88
2022/01/25 03:35:38;;;;;;;35.38;16.15;;;;;;;3.21;100.00;102380.34;5899535;30;20613;-88
2022/01/25 03:38:41;;;;;;;35.55;16.38;;;;;;;3.19;100.00;102376.97;5905889;30;20851;-89
2022/01/25 03:41:43;;;;;;;39.25;16.73;;;;;;;3.23;100.00;102378.59;5912705;30;20622;-88
2022/01/25 03:44:45;;;;;;;32.97;15.60;;;;;;;3.32;100.00;102375.00;5900732;30;20052;-88
2022/01/25 03:51:09;;;;;;;34.15;17.20;;;;;;;3.19;100.00;102376.97;5908525;29;20072;-88
2022/01/25 03:54:18;;;;;;;37.65;17.27;;;;;;;3.14;100.00;102375.34;5914725;30;20040;-88
2022/01/25 03:57:20;;;;;;;39.13;17.95;;;;;;;3.07;100.00;102372.06;5909769;30;20435;-88
2022/01/25 04:00:22;;;;;;;42.50;19.08;;;;;;;3.14;100.00;102373.63;5912904;30;20048;-88
2022/01/25 04:03:32;;;;;;;42.50;18.60;;;;;;;3.04;100.00;102366.16;5940313;29;20055;-88
2022/01/25 04:06:36;;;;;;;39.38;18.25;;;;;;;2.99;100.00;102368.81;5928809;29;20031;-88
2022/01/25 04:09:39;;;;;;;38.83;17.77;;;;;;;2.92;100.00;102367.22;5912829;30;20047;-88
2022/01/25 04:12:41;;;;;;;39.25;18.42;;;;;;;2.93;100.00;102372.31;5912228;30;20047;-88
2022/01/25 04:15:45;;;;;;;36.92;17.25;;;;;;;2.99;100.00;102369.63;5912547;30;20086;-88
2022/01/25 04:19:10;;;;;;;41.67;18.25;;;;;;;3.02;100.00;102363.63;5926840;29;20064;-88
2022/01/25 04:25:14;;;;;;;41.65;18.20;;;;;;;3.01;100.00;102369.63;5913895;30;20784;-88
2022/01/25 04:28:17;;;;;;;45.60;18.85;;;;;;;3.02;100.00;102356.78;5912113;30;20889;-88
2022/01/25 04:31:20;;;;;;;40.08;19.13;;;;;;;2.99;100.00;102363.69;5910297;30;20048;-88
2022/01/25 04:51:06;;;;;;;40.95;19.08;;;;;;;3.04;100.00;102346.53;5911449;30;20043;-88
2022/01/25 04:54:21;;;;;;;41.65;18.92;;;;;;;3.00;100.00;102350.84;5909432;29;20055;-88
2022/01/25 05:00:33;;;;;;;48.80;20.45;;;;;;;2.95;100.00;102344.13;5911659;30;20048;-88
2022/01/25 05:04:02;;;;;;;49.08;20.63;;;;;;;3.04;100.00;102353.38;5924616;29;20054;-88
2022/01/25 05:07:08;;;;;;;52.90;21.73;;;;;;;2.97;100.00;102348.34;5911784;30;20596;-88
2022/01/25 05:10:10;;;;;;;46.95;22.55;;;;;;;2.96;100.00;102354.34;5911704;30;20048;-88
2022/01/25 05:16:27;;;;;;;49.20;21.85;;;;;;;2.89;100.00;102349.38;5913155;30;20055;-88
2022/01/25 05:22:52;;;;;;;47.75;21.20;;;;;;;2.88;100.00;102350.22;5916248;29;20075;-88
2022/01/25 05:25:54;;;;;;;51.83;22.27;;;;;;;2.94;100.00;102347.56;5941084;29;20116;-88
2022/01/25 05:28:55;;;;;;;43.35;19.73;;;;;;;2.96;100.00;102353.50;5910757;30;20056;-88
2022/01/25 05:31:59;;;;;;;43.63;19.13;;;;;;;2.94;100.00;102356.09;5925720;29;20071;-88
2022/01/25 05:35:02;;;;;;;45.78;20.58;;;;;;;2.95;100.00;102369.72;5933560;29;20805;-88
2022/01/25 05:38:05;;;;;;;46.15;19.67;;;;;;;3.01;100.00;102362.78;5909988;29;20100;-88
2022/01/25 05:41:07;;;;;;;43.85;20.42;;;;;;;2.99;100.00;102369.63;5911727;30;20529;-88
2022/01/25 05:44:37;;;;;;;44.67;20.00;;;;;;;3.04;100.00;102367.00;5939332;29;20487;-88
2022/01/25 05:47:41;;;;;;;43.42;19.55;;;;;;;2.88;100.00;102376.66;5911349;30;20063;-88
2022/01/25 05:50:43;;;;;;;46.63;20.52;;;;;;;2.78;100.00;102375.09;5911277;30;20051;-88
2022/01/25 05:53:46;;;;;;;46.75;20.48;;;;;;;2.89;100.00;102380.06;5947860;29;20191;-88
2022/01/25 05:56:48;;;;;;;46.17;20.73;;;;;;;2.99;100.00;102371.34;5898026;30;20067;-88
2022/01/25 05:59:50;;;;;;;47.25;20.73;;;;;;;2.94;100.00;102376.56;5924661;29;20151;-88
2022/01/25 06:02:55;;;;;;;49.25;22.23;;;;;;;2.93;100.00;102374.00;5908804;30;20116;-88
2022/01/25 06:05:57;;;;;;;42.20;19.83;;;;;;;2.79;100.00;102377.66;5911722;29;20505;-88
2022/01/25 06:08:59;;;;;;;48.92;20.80;;;;;;;2.84;100.00;102374.19;5912081;30;20439;-88
2022/01/25 06:12:01;;;;;;;52.10;21.73;;;;;;;2.77;100.00;102369.16;5910794;30;20059;-88
2022/01/25 06:15:03;;;;;;;46.85;21.00;;;;;;;2.92;100.00;102375.72;5924353;29;20711;-88
2022/01/25 06:18:05;;;;;;;44.10;20.13;;;;;;;2.83;100.00;102381.00;5923582;29;20621;-88
2022/01/25 06:21:07;;;;;;;44.45;20.45;;;;;;;2.92;100.00;102374.88;5912506;29;20056;-88
2022/01/25 06:24:10;;;;;;;46.35;20.27;;;;;;;2.74;100.00;102379.44;5940905;29;20063;-88
2022/01/25 06:27:12;;;;;;;50.17;23.17;;;;;;;2.79;100.00;102376.81;5910703;30;20177;-88
2022/01/25 06:30:17;;;;;;;41.83;20.15;;;;;;;2.75;100.00;102381.13;5936122;29;20457;-88
2022/01/25 06:33:19;;;;;;;42.33;18.98;;;;;;;2.73;100.00;102387.13;5914883;29;20047;-88
2022/01/25 06:36:21;;;;;;;44.03;19.80;;;;;;;2.77;100.00;102389.63;5911591;30;20051;-89
2022/01/25 06:39:23;;;;;;;35.80;16.85;;;;;;;2.97;100.00;102396.13;5907963;30;20047;-88
2022/01/25 06:42:31;;;;;;;38.63;16.45;;;;;;;2.90;100.00;102392.81;5935817;29;20048;-88
2022/01/25 06:45:33;;;;;;;41.65;17.70;;;;;;;2.86;100.00;102392.88;5936549;29;20059;-88
2022/01/25 06:48:35;;;;;;;38.92;17.17;;;;;;;2.76;100.00;102393.06;5940429;29;20066;-88
2022/01/25 06:51:38;;;;;;;39.08;17.17;;;;;;;2.75;100.00;102396.47;5913909;30;20044;-88
2022/01/25 06:54:40;;;;;;;38.30;17.30;;;;;;;2.68;100.00;102392.31;5915769;29;20052;-88
2022/01/25 06:57:44;;;;;;;37.20;17.17;;;;;;;2.50;100.00;102390.88;5911484;29;20102;-88
2022/01/25 07:00:46;;;;;;;44.55;18.00;;;;;;;2.52;100.00;102388.31;5911832;30;20051;-88
2022/01/25 07:03:48;;;;;;;39.13;16.35;;;;;;;2.51;100.00;102379.81;5912841;29;20047;-88
2022/01/25 07:06:50;;;;;;;41.05;17.73;;;;;;;2.58;100.00;102383.09;5910729;29;20062;-88
2022/01/25 07:09:52;;;;;;;34.67;14.80;;;;;;;2.59;100.00;102380.53;5924052;29;20447;-88
2022/01/25 07:12:54;;;;;;;36.97;16.35;;;;;;;2.59;100.00;102384.81;5911743;30;20051;-88
2022/01/25 07:15:56;;;;;;;40.28;17.73;;;;;;;2.56;100.00;102382.31;5914805;30;20136;-88
2022/01/25 07:18:58;;;;;;;42.97;17.42;;;;;;;2.52;100.00;102385.75;5915278;30;20052;-88
2022/01/25 07:22:00;;;;;;;36.47;17.02;;;;;;;2.46;100.00;102383.28;5915142;29;20047;-88
2022/01/25 07:25:06;;;;;;;38.30;17.15;;;;;;;2.48;100.00;102384.13;5915460;30;20044;-88
2022/01/25 07:28:08;;;;;;;43.08;17.92;;;;;;;2.51;100.00;102384.06;5915422;30;20059;-88
2022/01/25 07:31:10;;;;;;;39.60;16.95;;;;;;;2.50;100.00;102387.50;5912617;30;20165;-88
2022/01/25 07:34:13;;;;;;;37.45;16.45;;;;;;;2.56;100.00;102389.97;5929708;29;20051;-88
2022/01/25 07:37:33;;;;;;;38.78;17.45;;;;;;;2.58;100.00;102383.97;5913874;30;20054;-88
2022/01/25 07:40:37;;;;;;;35.03;15.65;;;;;;;2.57;100.00;102384.81;5927869;29;20120;-88
2022/01/25 07:43:39;;;;;;;38.28;16.58;;;;;;;2.58;100.00;102395.88;5916213;30;20047;-88
2022/01/25 07:46:46;;;;;;;37.58;15.93;;;;;;;2.59;100.00;102393.31;5939151;29;21422;-88
2022/01/25 07:49:48;;;;;;;45.08;17.65;;;;;;;2.60;100.00;102391.59;5942076;29;20064;-88
2022/01/25 07:52:54;;;;;;;43.38;17.67;;;;;;;2.61;100.00;102392.44;5942556;29;20549;-88
2022/01/25 07:55:56;;;;;;;39.17;17.90;;;;;;;2.63;100.00;102396.66;5906789;30;20613;-88
2022/01/25 07:58:58;;;;;;;44.72;17.75;;;;;;;2.63;100.00;102398.38;5928509;29;20067;-88
2022/01/25 08:02:00;;;;;;;42.97;18.63;;;;;;;2.65;100.00;102394.91;5941669;29;20803;-88
2022/01/25 08:05:25;;;;;;;46.30;19.67;;;;;;;2.66;100.00;102396.63;5865384;30;20199;-88
2022/01/25 08:08:45;;;;;;;49.15;19.75;;;;;;;2.68;100.00;102401.69;5866187;30;20064;-88
2022/01/25 08:12:01;;;;;;;43.42;20.10;;;;;;;2.70;100.00;102397.41;5866692;30;20087;-88
2022/01/25 08:15:25;;;;;;;44.38;18.63;;;;;;;2.70;100.00;102398.25;5865416;30;20094;-88
2022/01/25 08:18:30;;;;;;;47.67;21.20;;;;;;;2.69;100.00;102386.34;5866175;30;20056;-88
2022/01/25 08:21:51;;;;;;;43.58;19.55;;;;;;;2.74;100.00;102393.94;5867702;30;20610;-88
2022/01/25 08:25:26;;;;;;;46.65;19.52;;;;;;;2.73;100.00;102398.22;5800159;30;20070;-88
2022/01/25 08:28:41;;;;;;;45.05;20.73;;;;;;;2.74;100.00;102396.50;5815514;30;20053;-88
2022/01/25 08:32:12;;;;;;;;;;;;;;;2.79;100.00;102395.56;5814094;30;20555;-88
2022/01/25 08:35:28;;;;;;;47.42;20.00;;;;;;;2.81;100.00;102400.66;5869775;30;19941;-89
2022/01/25 08:38:44;;;;;;;46.17;20.20;;;;;;;2.78;100.00;102390.44;5900689;30;20116;-88
2022/01/25 08:42:02;;;;;;;43.05;19.73;;;;;;;2.80;100.00;102399.78;5931514;29;20066;-88
2022/01/25 08:45:08;;;;;;;49.13;19.88;;;;;;;2.83;100.00;102398.88;5903360;30;20059;-88
2022/01/25 08:48:28;;;;;;;48.70;20.38;;;;;;;2.85;100.00;102398.88;5906698;30;20481;-88
2022/01/25 08:51:51;;;;;;;53.15;20.65;;;;;;;2.86;100.00;102400.56;5925518;29;20043;-88
2022/01/25 08:55:09;;;;;;;51.92;21.08;;;;;;;2.85;100.00;102402.28;5905057;30;20159;-88
2022/01/25 08:58:38;;;;;;;46.97;20.88;;;;;;;2.85;100.00;102417.63;5898458;30;21038;-88
2022/01/25 09:01:53;;;;;;;45.72;20.05;;;;;;;2.87;100.00;102415.03;5878248;30;20542;-88
2022/01/25 09:04:55;;;;;;;43.25;19.52;;;;;;;2.89;100.00;102421.00;5899176;30;20071;-88
2022/01/25 09:07:58;;;;;;;47.80;20.25;;;;;;;2.90;100.00;102412.44;5894299;30;20119;-88
2022/01/25 09:11:03;;;;;;;45.60;19.10;;;;;;;2.92;100.00;102410.69;5886477;30;20190;-88
2022/01/25 09:14:07;;;;;;;47.25;19.48;;;;;;;2.96;100.00;102412.34;5901090;30;20060;-88
2022/01/25 09:17:10;;;;;;;45.45;18.90;;;;;;;2.99;100.00;102409.72;5908927;30;20096;-88
2022/01/25 09:20:13;;;;;;;43.40;19.30;;;;;;;2.96;100.00;102420.84;5896661;30;20134;-88
2022/01/25 09:23:18;;;;;;;49.22;20.13;;;;;;;2.98;100.00;102418.25;5903781;30;20072;-88
2022/01/25 09:26:27;;;;;;;44.25;19.90;;;;;;;3.02;100.00;102419.91;5897763;30;20081;-88
2022/01/25 09:29:29;;;;;;;45.88;20.10;;;;;;;3.02;100.00;102425.03;5903017;30;20166;-88
2022/01/25 09:32:37;;;;;;;40.05;19.60;;;;;;;2.99;100.00;102422.53;5894534;30;20731;-88
2022/01/25 09:35:40;;;;;;;47.35;19.17;;;;;;;3.03;100.00;102419.03;5897692;30;20051;-88
2022/01/25 09:38:42;;;;;;;43.90;18.30;;;;;;;3.02;100.00;102409.66;5910296;30;20063;-88
2022/01/25 09:41:44;;;;;;;45.42;20.05;;;;;;;3.05;100.00;102421.56;5912500;30;20044;-88
2022/01/25 09:44:47;;;;;;;47.70;19.95;;;;;;;3.09;100.00;102413.81;5912578;30;20051;-88
2022/01/25 09:47:51;;;;;;;40.97;18.42;;;;;;;3.11;100.00;102418.91;5905880;30;20056;-88
2022/01/25 09:50:56;;;;;;;46.00;18.30;;;;;;;3.13;100.00;102428.25;5910119;30;20422;-88
2022/01/25 09:53:59;;;;;;;47.70;19.80;;;;;;;3.13;100.00;102429.94;5952118;29;20058;-92
2022/01/25 09:57:03;;;;;;;44.00;19.25;;;;;;;3.15;100.00;102426.50;5901496;30;20062;-88
2022/01/25 10:00:09;;;;;;;45.38;18.38;;;;;;;3.16;100.00;102425.63;5910836;30;20135;-88
2022/01/25 10:03:33;;;;;;;44.05;18.83;;;;;;;3.18;100.00;102430.72;5909876;30;20075;-88
2022/01/25 10:06:38;;;;;;;44.15;18.67;;;;;;;3.20;100.00;102426.41;5906178;30;20498;-88
2022/01/25 10:09:41;;;;;;;49.78;20.67;;;;;;;3.20;100.00;102426.41;5913487;29;20059;-88
2022/01/25 10:12:44;;;;;;;45.13;19.45;;;;;;;3.23;100.00;102424.66;5904293;30;20542;-88
2022/01/25 10:15:57;;;;;;;41.33;17.42;;;;;;;3.26;100.00;102431.44;5915494;29;20151;-88
2022/01/25 10:19:12;;;;;;;46.70;19.02;;;;;;;3.26;100.00;102428.88;5912091;30;20051;-88
2022/01/25 10:22:14;;;;;;;45.38;18.85;;;;;;;3.26;100.00;102425.47;5933329;29;20136;-88
2022/01/25 10:25:36;;;;;;;45.90;19.33;;;;;;;3.30;100.00;102427.09;5906682;30;20059;-88
2022/01/25 10:28:38;;;;;;;44.60;18.83;;;;;;;3.27;100.00;102428.00;5899282;30;20078;-88
2022/01/25 10:31:46;;;;;;;43.47;19.00;;;;;;;3.27;100.00;102422.88;5922604;29;20052;-89
2022/01/25 10:34:49;;;;;;;39.20;17.85;;;;;;;3.29;100.00;102433.94;5907912;30;20174;-88
2022/01/25 10:37:51;;;;;;;44.53;18.17;;;;;;;3.32;100.00;102423.63;6008733;24;20053;-94
2022/01/25 10:40:57;;;;;;;45.25;18.77;;;;;;;3.34;100.00;102418.50;6030875;24;20049;-87
2022/01/25 10:43:59;;;;;;;43.42;18.10;;;;;;;3.36;100.00;102424.44;6015985;29;20037;-87
2022/01/25 10:47:01;;;;;;;42.70;17.98;;;;;;;3.38;100.00;102417.56;6004664;29;20042;-87
2022/01/25 10:50:35;;;;;;;42.55;17.88;;;;;;;3.33;100.00;102421.91;5998222;29;20548;-87
2022/01/25 10:53:37;;;;;;;43.00;17.65;;;;;;;3.32;100.00;102418.50;5999985;29;20106;-88
2022/01/25 10:56:41;;;;;;;47.58;17.77;;;;;;;3.34;100.00;102421.91;6014469;24;20103;31
2022/01/25 10:59:59;;;;;;;42.75;17.65;;;;;;;3.35;100.00;102415.06;5957755;29;20070;-94
2022/01/25 11:03:03;;;;;;;46.13;19.15;;;;;;;3.38;100.00;102412.44;5932474;30;20063;-95
2022/01/25 11:06:18;;;;;;;41.90;17.73;;;;;;;3.39;100.00;102417.53;5955885;29;20071;-94
2022/01/25 11:09:23;;;;;;;40.67;16.73;;;;;;;3.41;100.00;102409.84;5956667;29;20043;-94
2022/01/25 11:12:28;;;;;;;41.95;18.35;;;;;;;3.44;100.00;102415.72;5955618;29;20073;-94
2022/01/25 11:15:30;;;;;;;43.15;17.52;;;;;;;3.44;100.00;102420.00;5957405;29;20055;-94
2022/01/25 11:18:33;;;;;;;37.95;16.30;;;;;;;3.45;100.00;102407.19;5955533;29;20051;-94
2022/01/25 11:21:36;;;;;;;43.55;17.80;;;;;;;3.44;100.00;102409.78;5956164;29;20534;-94
2022/01/25 11:24:39;;;;;;;40.75;15.85;;;;;;;3.41;100.00;102414.97;5955850;29;20506;-94
2022/01/25 11:27:43;;;;;;;37.85;16.92;;;;;;;3.40;100.00;102408.13;5952891;29;20067;-94
2022/01/25 11:30:52;;;;;;;39.97;17.65;;;;;;;3.41;100.00;102409.84;5951225;29;20050;-94
2022/01/25 11:33:57;;;;;;;44.17;17.35;;;;;;;3.37;100.00;102410.75;5952889;29;20058;-94
2022/01/25 11:37:04;;;;;;;42.70;17.33;;;;;;;3.31;100.00;102405.78;5962018;29;20099;-95
2022/01/25 11:40:39;;;;;;;40.05;16.38;;;;;;;3.39;100.00;102409.84;5953337;29;20040;-94
2022/01/25 11:44:03;;;;;;;32.75;14.95;;;;;;;3.49;100.00;102412.25;5967987;29;20043;-94
2022/01/25 11:47:16;;;;;;;41.92;16.98;;;;;;;3.43;100.00;102414.06;5956637;29;20080;-94
2022/01/25 11:50:18;;;;;;;40.65;17.33;;;;;;;3.40;100.00;102405.56;5941360;29;20047;-94
2022/01/25 11:53:24;;;;;;;39.17;16.92;;;;;;;3.43;100.00;102405.53;5957374;29;20058;-94
2022/01/25 11:56:27;;;;;;;37.13;16.58;;;;;;;3.40;100.00;102398.75;5936884;30;20055;-94
2022/01/25 11:59:35;;;;;;;36.72;15.05;;;;;;;3.42;100.00;102393.59;5936176;30;20066;-94
2022/01/25 12:02:46;;;;;;;36.83;16.85;;;;;;;3.39;100.00;102389.38;5940750;29;20043;-95
2022/01/25 12:06:06;;;;;;;35.13;16.02;;;;;;;3.42;100.00;102388.47;5950195;29;20063;-94
2022/01/25 12:09:42;;;;;;;41.50;17.25;;;;;;;3.36;100.00;102379.22;5937734;29;20123;-94
2022/01/25 12:13:28;;;;;;;40.83;15.77;;;;;;;3.40;100.00;102383.41;6052199;29;20061;-84
2022/01/25 12:16:30;;;;;;;44.53;17.00;;;;;;;3.27;100.00;102374.25;6043446;29;20479;-89
2022/01/25 12:19:58;;;;;;;35.90;16.52;;;;;;;3.19;100.00;102371.00;6043346;29;20303;-85
2022/01/25 12:23:18;;;;;;;40.90;17.45;;;;;;;3.32;100.00;102371.59;6055381;29;20561;-85
2022/01/25 12:27:02;;;;;;;43.33;17.50;;;;;;;3.29;100.00;102366.56;6051571;29;20057;-85
2022/01/25 12:30:13;;;;;;;42.00;16.60;;;;;;;3.27;100.00;102353.78;6056960;29;20045;-85
2022/01/25 12:33:23;;;;;;;45.40;16.45;;;;;;;3.31;100.00;102352.84;6055730;29;20048;-85
2022/01/25 12:36:35;;;;;;;43.38;16.92;;;;;;;3.35;100.00;102344.22;6054564;29;20053;-85
2022/01/25 12:39:38;;;;;;;37.63;16.45;;;;;;;3.42;100.00;102347.53;6044890;29;21469;-85
2022/01/25 12:42:40;;;;;;;38.40;15.40;;;;;;;3.41;100.00;102338.16;6051914;29;20049;-85
2022/01/25 12:45:55;;;;;;;41.03;17.40;;;;;;;3.29;100.00;102331.56;6055051;29;20045;-85
2022/01/25 12:49:23;;;;;;;44.20;16.35;;;;;;;3.30;100.00;102332.41;6055302;29;20049;-85
2022/01/25 12:52:27;;;;;;;40.33;15.57;;;;;;;3.29;100.00;102331.56;6049976;29;20049;-85
2022/01/25 12:55:39;;;;;;;38.42;16.02;;;;;;;3.40;100.00;102323.66;6052182;29;20040;-85
2022/01/25 12:58:42;;;;;;;37.63;16.10;;;;;;;3.40;100.00;102321.97;6053867;29;20076;-85
2022/01/25 13:01:45;;;;;;;40.50;16.55;;;;;;;3.36;100.00;102322.06;6047884;29;20516;-85
2022/01/25 13:04:47;;;;;;;43.08;17.10;;;;;;;3.32;100.00;102315.31;6032849;29;20063;-85
2022/01/25 13:07:49;;;;;;;37.80;16.45;;;;;;;3.34;100.00;102308.44;6039887;29;20068;-85
2022/01/25 13:10:56;;;;;;;39.72;17.10;;;;;;;3.42;100.00;102309.13;6036619;29;20583;-85
2022/01/25 13:14:19;;;;;;;37.85;15.95;;;;;;;3.48;100.00;102306.47;6043950;29;20065;-85
2022/01/25 13:17:25;;;;;;;35.72;15.10;;;;;;;3.58;100.00;102299.44;6051104;29;20045;-85
2022/01/25 13:20:27;;;;;;;36.17;15.32;;;;;;;3.71;100.00;102298.28;6048736;29;20071;-85
2022/01/25 13:23:29;;;;;;;33.58;14.25;;;;;;;3.76;100.00;102300.75;6048829;29;20051;-85
2022/01/25 13:26:38;;;;;;;33.05;14.27;;;;;;;3.88;100.00;102292.78;6047367;29;20066;-85
2022/01/25 13:33:21;;;;;;;35.65;15.60;;;;;;;4.03;100.00;102295.00;6050345;29;20044;-85
2022/01/25 13:36:32;;;;;;;36.10;14.75;;;;;;;4.03;100.00;102295.00;6052732;29;20072;-85
2022/01/25 13:39:35;;;;;;;33.85;15.13;;;;;;;4.02;100.00;102297.59;6053318;29;20056;-85
2022/01/25 13:46:15;;;;;;;36.72;15.02;;;;;;;3.94;100.00;102299.50;6042403;29;20780;-85
2022/01/25 13:49:20;;;;;;;34.53;15.05;;;;;;;3.95;100.00;102296.91;6050441;29;20041;-85
2022/01/25 13:52:25;;;;;;;36.47;15.05;;;;;;;3.96;100.00;102302.88;6044167;29;20045;-85
2022/01/25 13:55:27;;;;;;;34.53;15.07;;;;;;;3.88;100.00;102292.78;6044770;29;20120;-85
2022/01/25 13:58:40;;;;;;;31.83;14.20;;;;;;;3.99;100.00;102295.94;6045545;29;20044;-85
2022/01/25 14:01:43;;;;;;;37.83;15.40;;;;;;;4.04;100.00;102298.41;6047194;29;20048;-85
2022/01/25 14:04:46;;;;;;;34.70;15.48;;;;;;;4.03;100.00;102287.31;6039620;29;20040;-85
2022/01/25 14:07:50;;;;;;;36.53;16.02;;;;;;;4.05;100.00;102294.94;6064628;29;20053;-85
2022/01/25 14:10:57;;;;;;;41.92;16.13;;;;;;;4.02;100.00;102290.72;6046475;29;20052;-85
2022/01/25 14:24:33;;;;;;;35.85;15.18;;;;;;;3.77;100.00;102289.63;6048846;29;20376;-85
2022/01/25 14:27:50;;;;;;;37.10;14.80;;;;;;;3.69;100.00;102286.38;6032583;29;20046;-85
2022/01/25 14:30:55;;;;;;;31.77;13.43;;;;;;;3.57;100.00;102301.13;6050827;29;20065;-85
2022/01/25 14:33:59;;;;;;;37.53;16.25;;;;;;;3.55;100.00;102299.47;6051159;29;20037;-85
2022/01/25 14:37:01;;;;;;;40.08;15.95;;;;;;;3.44;100.00;102300.53;6050178;29;20063;-85
2022/01/25 14:40:11;;;;;;;40.70;16.33;;;;;;;3.50;100.00;102304.69;6051788;29;20053;-85
2022/01/25 14:43:16;;;;;;;43.95;15.93;;;;;;;3.31;100.00;102311.06;6050103;29;20056;-84
2022/01/25 14:46:40;;;;;;;38.13;16.33;;;;;;;3.20;100.00;102303.59;6050114;29;20045;-84
2022/01/25 14:49:47;;;;;;;38.83;15.70;;;;;;;3.16;100.00;102301.97;6051734;29;20048;-85
2022/01/25 14:53:12;;;;;;;35.33;16.05;;;;;;;3.11;100.00;102302.06;6048576;29;20051;-85
2022/01/25 14:56:16;;;;;;;35.05;14.75;;;;;;;3.19;100.00;102301.91;6044677;29;20061;-85
2022/01/25 14:59:27;;;;;;;37.63;15.52;;;;;;;3.14;100.00;102304.56;6041822;29;20041;-85
2022/01/25 15:02:29;;;;;;;43.60;17.15;;;;;;;3.16;100.00;102307.09;6048299;29;20044;-85
2022/01/25 15:05:32;;;;;;;42.88;16.23;;;;;;;3.19;100.00;102312.16;6048739;29;20045;-85
2022/01/25 15:08:34;;;;;;;43.30;16.23;;;;;;;3.14;100.00;102307.13;6048201;29;20089;-85
2022/01/25 15:11:36;;;;;;;40.28;14.93;;;;;;;3.22;100.00;102312.09;6045655;29;20045;-85
2022/01/25 15:14:52;;;;;;;36.20;15.80;;;;;;;3.16;100.00;102309.66;6032147;29;20045;-85
2022/01/25 15:17:55;;;;;;;40.63;16.27;;;;;;;3.13;100.00;102305.44;6046818;29;20132;-85
2022/01/25 15:20:59;;;;;;;41.58;15.75;;;;;;;3.07;100.00;102305.53;6047742;29;20338;-85
2022/01/25 15:24:01;;;;;;;38.20;15.68;;;;;;;3.05;100.00;102302.16;6045916;29;20045;-85
2022/01/25 15:27:07;;;;;;;40.08;14.48;;;;;;;3.00;100.00;102299.69;6046198;29;20661;-85
2022/01/25 15:30:12;;;;;;;33.45;15.05;;;;;;;2.99;100.00;102298.00;6045439;29;20059;-85
2022/01/25 15:33:14;;;;;;;37.20;15.38;;;;;;;2.96;100.00;102292.97;6043726;29;20592;-85
2022/01/25 15:36:18;;;;;;;41.67;16.45;;;;;;;3.04;100.00;102300.50;6050380;29;20049;-85
2022/01/25 15:39:20;;;;;;;35.28;15.63;;;;;;;2.99;100.00;102302.28;6052663;29;20123;-85
2022/01/25 15:42:26;;;;;;;36.53;15.57;;;;;;;2.97;100.00;102302.31;6052375;29;20044;-85
2022/01/25 15:45:31;;;;;;;42.33;16.42;;;;;;;2.96;100.00;102300.63;6044756;29;20045;-85
2022/01/25 15:48:34;;;;;;;38.88;15.32;;;;;;;2.89;100.00;102304.19;6045862;29;20614;-85
2022/01/25 15:51:36;;;;;;;40.25;15.60;;;;;;;2.92;100.00;102306.66;6054645;29;20041;-86
2022/01/25 15:54:40;;;;;;;44.78;15.95;;;;;;;2.93;100.00;102302.38;6042962;29;20052;-85
2022/01/25 15:57:46;;;;;;;39.33;15.90;;;;;;;2.82;100.00;102302.59;6053467;29;20443;-85
2022/01/25 16:00:48;;;;;;;36.10;15.10;;;;;;;2.76;100.00;102301.00;6054806;29;20462;-85
2022/01/25 16:03:53;;;;;;;38.28;14.23;;;;;;;2.73;100.00;102298.50;6048822;29;20045;-85
2022/01/25 16:06:57;;;;;;;43.03;15.10;;;;;;;2.79;100.00;102305.22;6049212;29;20049;-85